Point Mugu Naval Air Station (Naval Base Ventura Co)
KNTD : now visible

Airfield :











YOU CAN JOIN US ON...

 
LOGIN :

Register | Disclaimer

   EN    FR    IT 

 









Legend :    VFR   Marginal VFR   IFR   Intensive IFR   Very Intensive IFR
Visi :
Ceiling :
>= 8 km
>= 3000ft
5 to 8 km
1000 to 3000 ft
1500m to 5 km
500 to 1000 ft
800 to 1500m
200 to 500 ft
< 800m
< 200 ft
Symbols :   Thunderstorms  Fog  Heavy snow  Heavy precipitations  Wind > 20 kt







- Airport Elevation : 13 ft


KNTD - Point Mugu Naval Air Station (Naval Base Ventura Co)

CURRENT METAR :
  • 211657Z 14007KT 10SM CLR 22/17 A2992 RMK AO2 SLP132 T02220167 CHINO N VISNO N $

EXPIRED METARs :
  • 211557Z 04003KT 10SM CLR 21/13 A2991 RMK AO2 SLP130 T02060128 CHINO N VISNO N $
  • 211457Z 04003KT 10SM CLR 16/12 A2991 RMK AO2 SLP128 T01610117 53014 CHINO N VISNO N $

TAF TAF KNTD
Valid from the 21 at 15:00 until the 22 at 15:00 UTC


2115/2215 08006KT 9999 FEW015 QNH2984INS
TEMPO 2115/2118 VRB06KT BKN015
FM212100 27009KT 9999 FEW018 QNH2982INS
FM220500 30010KT 9999 FEW015 QNH2984INS T25/2119Z T12/2212Z FS30144
No reported NOTAMs for that airfield.



MET'MAP, your aeronautical weather chart ! - Copyright ORBIFLY December 2007 - Disclaimer

ORBIFLY MET'MAP TEAM :

Programming & Development : Alexandra Zaïnal
Concept & Development : Baudouin d'Aumeries
Co-Development & Prog : Marc-Olivier Méhu
Technical & hardware support : Manuel Goepfert

Contact : metmap@orbifly.com




SOURCES & CREDITS :

   NOAA       Earth
Advisory